createdAt,value
2022-12-20T00:04:54.883Z,9.00
2022-12-20T00:09:56.633Z,9.10
2022-12-20T00:14:58.252Z,9.10
2022-12-20T00:19:59.950Z,9.20
2022-12-20T00:25:01.616Z,9.20
2022-12-20T00:30:04.024Z,9.10
2022-12-20T00:35:06.147Z,8.70
2022-12-20T00:40:08.569Z,8.50
2022-12-20T00:45:10.701Z,8.40
2022-12-20T00:50:13.610Z,8.30
2022-12-20T00:55:15.589Z,8.40
2022-12-20T01:00:17.656Z,8.40
2022-12-20T01:05:19.870Z,8.50
2022-12-20T01:10:21.564Z,8.60
2022-12-20T01:15:23.354Z,8.70
2022-12-20T01:20:25.006Z,8.70
2022-12-20T01:25:26.674Z,8.70
2022-12-20T01:30:28.310Z,8.80
2022-12-20T01:35:29.980Z,8.80
2022-12-20T01:40:31.702Z,8.90
2022-12-20T01:45:33.370Z,9.00
2022-12-20T01:50:35.416Z,9.00
2022-12-20T01:55:37.521Z,9.00
2022-12-20T02:00:39.552Z,8.90
2022-12-20T02:05:45.757Z,8.90
2022-12-20T02:11:02.541Z,8.90
2022-12-20T02:16:04.956Z,8.90
2022-12-20T02:21:34.147Z,8.90
2022-12-20T02:27:02.128Z,8.90
2022-12-20T02:32:08.585Z,8.90
2022-12-20T02:37:10.892Z,8.90
2022-12-20T02:42:15.227Z,9.00
2022-12-20T02:47:26.388Z,9.00
2022-12-20T02:52:31.033Z,9.10
2022-12-20T02:57:37.563Z,9.10
2022-12-20T03:02:58.770Z,9.10
2022-12-20T03:08:00.592Z,9.10
2022-12-20T03:13:02.379Z,9.10
2022-12-20T03:18:04.715Z,9.10
2022-12-20T03:23:06.515Z,9.10
2022-12-20T03:28:08.280Z,9.20
2022-12-20T03:33:10.088Z,9.30
2022-12-20T03:38:11.700Z,9.40
2022-12-20T03:43:13.488Z,9.40
2022-12-20T03:48:15.514Z,9.40
2022-12-20T03:53:17.170Z,9.50
2022-12-20T03:58:18.823Z,9.50
2022-12-20T04:03:20.576Z,9.40
2022-12-20T04:08:22.303Z,9.40
2022-12-20T04:13:24.018Z,9.40
2022-12-20T04:18:25.735Z,9.40
2022-12-20T04:23:27.509Z,9.30
2022-12-20T04:28:29.674Z,9.30
2022-12-20T04:33:31.676Z,9.50
2022-12-20T04:38:33.907Z,9.50
2022-12-20T04:43:35.588Z,9.50
2022-12-20T04:48:57.041Z,9.50
2022-12-20T04:53:59.339Z,9.50
2022-12-20T04:59:02.507Z,9.50
2022-12-20T05:04:04.402Z,9.50
2022-12-20T05:09:06.120Z,9.50
2022-12-20T05:14:07.785Z,9.40
2022-12-20T05:19:09.411Z,9.40
2022-12-20T05:24:29.734Z,9.40
2022-12-20T05:29:31.408Z,9.30
2022-12-20T05:34:33.081Z,9.40
2022-12-20T05:39:34.709Z,9.40
2022-12-20T05:44:36.865Z,9.50
2022-12-20T05:49:38.580Z,9.60
2022-12-20T05:54:40.243Z,9.60
2022-12-20T05:59:42.051Z,9.60
2022-12-20T06:04:43.657Z,9.60
2022-12-20T06:09:46.356Z,9.60
2022-12-20T06:14:48.016Z,9.60
2022-12-20T06:19:49.659Z,9.60
2022-12-20T06:24:51.315Z,9.60
2022-12-20T06:29:54.426Z,9.70
2022-12-20T06:34:56.320Z,9.70
2022-12-20T06:39:58.531Z,9.80
2022-12-20T06:45:00.198Z,9.80
2022-12-20T06:50:02.085Z,9.80
2022-12-20T06:55:04.187Z,9.80
2022-12-20T07:00:08.340Z,9.80
2022-12-20T07:05:10.017Z,9.90
2022-12-20T07:10:11.759Z,9.80
2022-12-20T07:15:13.585Z,9.80
2022-12-20T07:20:15.381Z,9.80
2022-12-20T07:25:17.195Z,9.70
2022-12-20T07:30:20.151Z,9.70
2022-12-20T07:35:21.788Z,9.70
2022-12-20T07:40:24.161Z,9.80
2022-12-20T07:45:26.474Z,9.80
2022-12-20T07:50:29.238Z,9.80
2022-12-20T07:55:31.343Z,9.90
2022-12-20T08:00:33.617Z,9.90
2022-12-20T08:05:37.335Z,10.00
2022-12-20T08:10:39.401Z,10.00
2022-12-20T08:15:41.250Z,10.00
2022-12-20T08:20:42.900Z,10.10
2022-12-20T08:25:44.727Z,10.10
2022-12-20T08:30:46.777Z,10.10
2022-12-20T08:35:48.412Z,10.10
2022-12-20T08:40:50.129Z,10.10
2022-12-20T08:45:55.487Z,10.20
2022-12-20T08:50:58.627Z,10.20
2022-12-20T08:56:19.932Z,10.30
2022-12-20T09:01:23.339Z,10.30
2022-12-20T09:06:28.351Z,10.40
2022-12-20T09:11:31.148Z,10.40
2022-12-20T09:16:33.716Z,10.40
2022-12-20T09:21:35.453Z,10.40
2022-12-20T09:26:37.296Z,10.50
2022-12-20T09:31:39.073Z,10.50
2022-12-20T09:36:40.853Z,10.60
2022-12-20T09:41:43.998Z,10.60
2022-12-20T09:46:51.838Z,10.60
2022-12-20T09:52:35.073Z,10.60
2022-12-20T09:58:00.682Z,10.70
2022-12-20T10:03:10.449Z,10.70
2022-12-20T10:08:23.052Z,10.60
2022-12-20T10:13:58.589Z,10.60
2022-12-20T10:19:24.853Z,10.70
2022-12-20T10:24:34.365Z,10.80
2022-12-20T10:29:36.136Z,10.90
2022-12-20T10:34:41.095Z,11.00
2022-12-20T10:39:49.481Z,11.00
2022-12-20T10:44:51.536Z,11.10
2022-12-20T10:50:14.279Z,11.00
2022-12-20T10:55:48.518Z,11.00
2022-12-20T11:00:50.359Z,10.90
2022-12-20T11:05:56.829Z,10.80
2022-12-20T11:11:12.040Z,10.80
2022-12-20T11:16:36.688Z,10.70
2022-12-20T11:21:49.734Z,10.70
2022-12-20T11:27:19.111Z,10.80
2022-12-20T11:32:35.868Z,10.70
2022-12-20T11:38:07.298Z,10.70
2022-12-20T11:44:15.704Z,10.70
2022-12-20T11:49:43.118Z,10.70
2022-12-20T11:55:02.081Z,10.80
2022-12-20T12:00:04.283Z,10.90
2022-12-20T12:05:16.752Z,10.90
2022-12-20T12:10:25.614Z,11.00
2022-12-20T12:15:48.103Z,11.10
2022-12-20T12:21:09.321Z,11.30
2022-12-20T12:26:24.167Z,11.40
2022-12-20T12:31:32.301Z,11.40
2022-12-20T12:36:55.714Z,11.60
2022-12-20T12:42:25.064Z,11.60
2022-12-20T12:47:54.435Z,11.70
2022-12-20T12:53:04.474Z,11.60
2022-12-20T12:58:24.640Z,11.70
2022-12-20T13:03:46.103Z,11.70
2022-12-20T13:09:09.594Z,11.80
2022-12-20T13:14:27.241Z,11.80
2022-12-20T13:19:28.967Z,11.70
2022-12-20T13:24:50.391Z,11.70
2022-12-20T13:30:12.458Z,11.80
2022-12-20T13:35:47.763Z,11.70
2022-12-20T13:40:56.852Z,11.60
2022-12-20T13:46:11.110Z,11.60
2022-12-20T13:51:20.180Z,11.70
2022-12-20T13:56:27.923Z,11.70
2022-12-20T14:01:31.379Z,11.70
2022-12-20T14:06:34.093Z,11.70
2022-12-20T14:11:47.346Z,11.60
2022-12-20T14:16:49.063Z,11.60
2022-12-20T14:21:52.046Z,11.60
2022-12-20T14:26:56.532Z,11.60
2022-12-20T14:31:58.568Z,11.70
2022-12-20T14:37:29.677Z,11.70
2022-12-20T14:42:37.210Z,11.70
2022-12-20T14:47:48.163Z,11.80
2022-12-20T14:52:50.009Z,11.80
2022-12-20T14:57:54.638Z,11.80
2022-12-20T15:02:56.728Z,11.80
2022-12-20T15:08:22.181Z,11.80
2022-12-20T15:13:35.290Z,11.80
2022-12-20T15:18:36.956Z,11.80
2022-12-20T15:23:45.938Z,11.70
2022-12-20T15:28:47.745Z,11.70
2022-12-20T15:33:50.516Z,11.70
2022-12-20T15:39:12.162Z,11.70
2022-12-20T15:44:17.723Z,11.70
2022-12-20T15:49:24.905Z,11.70
2022-12-20T15:54:33.393Z,11.70
2022-12-20T16:04:58.647Z,11.70
2022-12-20T16:10:00.925Z,11.70
2022-12-20T16:15:03.284Z,11.60
2022-12-20T16:20:05.859Z,11.60
2022-12-20T16:25:25.105Z,11.70
2022-12-20T16:30:27.890Z,11.70
2022-12-20T16:35:39.699Z,11.70
2022-12-20T16:40:41.447Z,11.70
2022-12-20T16:45:43.246Z,11.60
2022-12-20T16:50:45.583Z,11.70
2022-12-20T16:55:47.469Z,11.70
2022-12-20T17:00:49.290Z,11.60
2022-12-20T17:05:51.677Z,11.60
2022-12-20T17:10:53.420Z,11.60
2022-12-20T17:15:55.161Z,11.60
2022-12-20T17:20:56.918Z,11.60
2022-12-20T17:25:58.671Z,11.60
2022-12-20T17:31:07.562Z,11.50
2022-12-20T17:36:09.934Z,11.50
2022-12-20T17:41:22.753Z,11.60
2022-12-20T17:46:25.388Z,11.60
2022-12-20T17:51:29.759Z,11.60
2022-12-20T17:56:33.794Z,11.60
2022-12-20T18:01:36.276Z,11.60
2022-12-20T18:06:40.205Z,11.60
2022-12-20T18:11:42.318Z,11.60
2022-12-20T18:16:44.359Z,11.60
2022-12-20T18:21:46.236Z,11.60
2022-12-20T18:26:47.948Z,11.60
2022-12-20T18:31:49.775Z,11.60
2022-12-20T18:36:51.447Z,11.60
2022-12-20T18:41:53.171Z,11.60
2022-12-20T18:46:55.954Z,11.60
2022-12-20T18:51:59.795Z,11.60
2022-12-20T18:57:01.697Z,11.70
2022-12-20T19:02:04.254Z,11.70
2022-12-20T19:07:06.592Z,11.70
2022-12-20T19:12:08.453Z,11.70
2022-12-20T19:17:10.394Z,11.70
2022-12-20T19:22:12.162Z,11.70
2022-12-20T19:27:13.855Z,11.70
2022-12-20T19:32:15.558Z,11.70
2022-12-20T19:37:18.202Z,11.70
2022-12-20T19:42:24.335Z,11.70
2022-12-20T19:47:27.364Z,11.70
2022-12-20T19:52:29.557Z,11.70
2022-12-20T19:57:31.246Z,11.60
2022-12-20T20:02:32.996Z,11.70
2022-12-20T20:07:34.768Z,11.70
2022-12-20T20:12:38.220Z,11.70
2022-12-20T20:17:40.022Z,11.70
2022-12-20T20:22:41.726Z,11.60
2022-12-20T20:27:43.398Z,11.70
2022-12-20T20:32:45.104Z,11.70
2022-12-20T20:37:46.888Z,11.70
2022-12-20T20:42:48.637Z,11.90
2022-12-20T20:47:51.564Z,11.90
2022-12-20T20:52:53.306Z,11.80
2022-12-20T20:57:54.972Z,11.80
2022-12-20T21:02:56.839Z,11.80
2022-12-20T21:07:59.169Z,11.80
2022-12-20T21:13:00.793Z,11.80
2022-12-20T21:18:02.505Z,11.80
2022-12-20T21:23:04.661Z,11.90
2022-12-20T21:28:06.378Z,11.90
2022-12-20T21:33:09.040Z,12.00
2022-12-20T21:38:10.656Z,12.10
2022-12-20T21:43:12.401Z,12.20
2022-12-20T21:48:14.035Z,12.30
2022-12-20T21:53:19.410Z,12.40
2022-12-20T21:58:24.170Z,12.40
2022-12-20T22:03:26.337Z,12.50
2022-12-20T22:08:29.301Z,12.50
2022-12-20T22:13:37.238Z,12.50
2022-12-20T22:18:43.576Z,12.50
2022-12-20T22:23:45.529Z,12.50
2022-12-20T22:28:59.099Z,12.60
2022-12-20T22:34:01.968Z,12.60
2022-12-20T22:39:03.906Z,12.60
2022-12-20T22:44:05.652Z,12.60
2022-12-20T22:49:07.370Z,12.50
2022-12-20T22:54:09.315Z,12.50
2022-12-20T22:59:11.085Z,12.60
2022-12-20T23:04:12.768Z,12.30
2022-12-20T23:09:14.474Z,12.10
2022-12-20T23:14:40.391Z,12.00
2022-12-20T23:20:00.912Z,11.80
2022-12-20T23:25:03.598Z,11.70
2022-12-20T23:30:08.675Z,11.60
2022-12-20T23:35:12.753Z,11.50
2022-12-20T23:40:16.061Z,11.50
2022-12-20T23:45:17.731Z,11.50
2022-12-20T23:50:19.453Z,11.50
2022-12-20T23:55:21.117Z,11.30
